sensor_id;sensor_type;location;lat;lon;timestamp;P1;durP1;ratioP1;P2;durP2;ratioP2
65835;SDS011;52595;51.608;7.216;2022-12-10T00:00:52;67.78;;;26.95;;
65835;SDS011;52595;51.608;7.216;2022-12-10T00:03:17;63.85;;;26.20;;
65835;SDS011;52595;51.608;7.216;2022-12-10T00:05:42;58.55;;;26.23;;
65835;SDS011;52595;51.608;7.216;2022-12-10T00:08:08;61.92;;;27.00;;
65835;SDS011;52595;51.608;7.216;2022-12-10T00:10:33;59.08;;;25.67;;
65835;SDS011;52595;51.608;7.216;2022-12-10T00:12:58;65.78;;;26.60;;
65835;SDS011;52595;51.608;7.216;2022-12-10T00:15:24;78.00;;;29.17;;
65835;SDS011;52595;51.608;7.216;2022-12-10T00:17:49;72.57;;;27.77;;
65835;SDS011;52595;51.608;7.216;2022-12-10T00:20:14;59.85;;;26.55;;
65835;SDS011;52595;51.608;7.216;2022-12-10T00:22:40;70.32;;;27.30;;
65835;SDS011;52595;51.608;7.216;2022-12-10T00:25:05;62.60;;;25.83;;
65835;SDS011;52595;51.608;7.216;2022-12-10T00:27:31;63.40;;;25.98;;
65835;SDS011;52595;51.608;7.216;2022-12-10T00:29:56;64.75;;;26.48;;
65835;SDS011;52595;51.608;7.216;2022-12-10T00:32:22;60.53;;;23.45;;
65835;SDS011;52595;51.608;7.216;2022-12-10T00:34:47;69.20;;;27.05;;
65835;SDS011;52595;51.608;7.216;2022-12-10T00:37:12;72.47;;;26.25;;
65835;SDS011;52595;51.608;7.216;2022-12-10T00:39:38;62.42;;;26.50;;
65835;SDS011;52595;51.608;7.216;2022-12-10T00:42:03;61.38;;;25.02;;
65835;SDS011;52595;51.608;7.216;2022-12-10T00:44:29;56.00;;;24.95;;
65835;SDS011;52595;51.608;7.216;2022-12-10T00:46:54;67.55;;;26.10;;
65835;SDS011;52595;51.608;7.216;2022-12-10T00:49:19;59.42;;;25.95;;
65835;SDS011;52595;51.608;7.216;2022-12-10T00:51:48;64.18;;;26.15;;
65835;SDS011;52595;51.608;7.216;2022-12-10T00:54:13;63.50;;;25.20;;
65835;SDS011;52595;51.608;7.216;2022-12-10T00:56:39;61.33;;;23.98;;
65835;SDS011;52595;51.608;7.216;2022-12-10T00:59:05;59.13;;;23.92;;
65835;SDS011;52595;51.608;7.216;2022-12-10T01:01:35;55.75;;;23.45;;
65835;SDS011;52595;51.608;7.216;2022-12-10T01:04:07;58.55;;;23.60;;
65835;SDS011;52595;51.608;7.216;2022-12-10T01:06:47;50.30;;;22.77;;
65835;SDS011;52595;51.608;7.216;2022-12-10T01:09:19;59.67;;;24.95;;
65835;SDS011;52595;51.608;7.216;2022-12-10T01:11:49;62.60;;;23.92;;
65835;SDS011;52595;51.608;7.216;2022-12-10T01:14:17;60.95;;;24.67;;
65835;SDS011;52595;51.608;7.216;2022-12-10T01:16:44;61.83;;;24.35;;
65835;SDS011;52595;51.608;7.216;2022-12-10T01:19:11;59.00;;;23.98;;
65835;SDS011;52595;51.608;7.216;2022-12-10T01:21:36;59.40;;;23.50;;
65835;SDS011;52595;51.608;7.216;2022-12-10T01:24:02;60.28;;;24.85;;
65835;SDS011;52595;51.608;7.216;2022-12-10T01:26:29;62.55;;;26.15;;
65835;SDS011;52595;51.608;7.216;2022-12-10T01:28:56;68.47;;;25.70;;
65835;SDS011;52595;51.608;7.216;2022-12-10T01:31:23;68.00;;;25.98;;
65835;SDS011;52595;51.608;7.216;2022-12-10T01:33:50;63.53;;;26.42;;
65835;SDS011;52595;51.608;7.216;2022-12-10T01:36:17;61.15;;;24.13;;
65835;SDS011;52595;51.608;7.216;2022-12-10T01:38:53;64.50;;;25.90;;
65835;SDS011;52595;51.608;7.216;2022-12-10T01:41:20;63.60;;;25.80;;
65835;SDS011;52595;51.608;7.216;2022-12-10T01:46:41;65.80;;;24.95;;
65835;SDS011;52595;51.608;7.216;2022-12-10T01:49:11;69.65;;;26.38;;
65835;SDS011;52595;51.608;7.216;2022-12-10T01:51:39;57.85;;;25.00;;
65835;SDS011;52595;51.608;7.216;2022-12-10T01:54:08;67.78;;;25.33;;
65835;SDS011;52595;51.608;7.216;2022-12-10T01:56:38;61.63;;;25.35;;
65835;SDS011;52595;51.608;7.216;2022-12-10T01:59:08;57.15;;;24.70;;
65835;SDS011;52595;51.608;7.216;2022-12-10T02:10:24;58.05;;;24.67;;
65835;SDS011;52595;51.608;7.216;2022-12-10T02:15:36;63.25;;;24.75;;
65835;SDS011;52595;51.608;7.216;2022-12-10T02:18:08;59.22;;;24.27;;
65835;SDS011;52595;51.608;7.216;2022-12-10T02:23:16;58.58;;;25.25;;
65835;SDS011;52595;51.608;7.216;2022-12-10T02:28:51;62.00;;;25.02;;
65835;SDS011;52595;51.608;7.216;2022-12-10T02:31:30;62.33;;;25.73;;
65835;SDS011;52595;51.608;7.216;2022-12-10T02:33:58;63.88;;;24.85;;
65835;SDS011;52595;51.608;7.216;2022-12-10T02:36:27;61.60;;;25.77;;
65835;SDS011;52595;51.608;7.216;2022-12-10T02:38:55;70.88;;;26.65;;
65835;SDS011;52595;51.608;7.216;2022-12-10T02:41:23;61.47;;;26.42;;
65835;SDS011;52595;51.608;7.216;2022-12-10T02:43:53;62.00;;;25.40;;
65835;SDS011;52595;51.608;7.216;2022-12-10T02:46:22;58.63;;;25.90;;
65835;SDS011;52595;51.608;7.216;2022-12-10T02:48:50;59.75;;;24.85;;
65835;SDS011;52595;51.608;7.216;2022-12-10T02:51:16;66.07;;;25.17;;
65835;SDS011;52595;51.608;7.216;2022-12-10T02:53:43;59.20;;;25.52;;
65835;SDS011;52595;51.608;7.216;2022-12-10T02:59:03;59.33;;;25.13;;
65835;SDS011;52595;51.608;7.216;2022-12-10T03:04:39;54.05;;;23.30;;
65835;SDS011;52595;51.608;7.216;2022-12-10T03:07:19;61.53;;;24.48;;
65835;SDS011;52595;51.608;7.216;2022-12-10T03:09:53;58.75;;;25.17;;
65835;SDS011;52595;51.608;7.216;2022-12-10T03:12:28;57.55;;;26.05;;
65835;SDS011;52595;51.608;7.216;2022-12-10T03:15:00;65.45;;;25.88;;
65835;SDS011;52595;51.608;7.216;2022-12-10T03:17:30;66.45;;;26.13;;
65835;SDS011;52595;51.608;7.216;2022-12-10T03:19:57;55.00;;;25.17;;
65835;SDS011;52595;51.608;7.216;2022-12-10T03:22:24;56.50;;;26.20;;
65835;SDS011;52595;51.608;7.216;2022-12-10T03:24:49;60.03;;;25.50;;
65835;SDS011;52595;51.608;7.216;2022-12-10T03:27:16;58.15;;;25.63;;
65835;SDS011;52595;51.608;7.216;2022-12-10T03:29:46;56.13;;;26.00;;
65835;SDS011;52595;51.608;7.216;2022-12-10T03:32:14;58.80;;;25.88;;
65835;SDS011;52595;51.608;7.216;2022-12-10T03:34:41;59.85;;;25.95;;
65835;SDS011;52595;51.608;7.216;2022-12-10T03:37:08;57.92;;;24.88;;
65835;SDS011;52595;51.608;7.216;2022-12-10T03:39:34;59.88;;;25.65;;
65835;SDS011;52595;51.608;7.216;2022-12-10T03:41:59;57.60;;;25.20;;
65835;SDS011;52595;51.608;7.216;2022-12-10T03:44:28;55.78;;;25.15;;
65835;SDS011;52595;51.608;7.216;2022-12-10T03:46:55;56.92;;;25.70;;
65835;SDS011;52595;51.608;7.216;2022-12-10T03:49:20;58.85;;;25.88;;
65835;SDS011;52595;51.608;7.216;2022-12-10T03:51:45;51.97;;;25.40;;
65835;SDS011;52595;51.608;7.216;2022-12-10T03:54:11;55.95;;;25.23;;
65835;SDS011;52595;51.608;7.216;2022-12-10T03:56:36;57.10;;;25.77;;
65835;SDS011;52595;51.608;7.216;2022-12-10T03:59:02;52.38;;;23.67;;
65835;SDS011;52595;51.608;7.216;2022-12-10T04:01:28;57.55;;;25.73;;
65835;SDS011;52595;51.608;7.216;2022-12-10T04:03:53;51.72;;;24.88;;
65835;SDS011;52595;51.608;7.216;2022-12-10T04:06:19;55.53;;;25.38;;
65835;SDS011;52595;51.608;7.216;2022-12-10T04:08:45;56.58;;;25.15;;
65835;SDS011;52595;51.608;7.216;2022-12-10T04:11:11;54.13;;;25.25;;
65835;SDS011;52595;51.608;7.216;2022-12-10T04:13:38;49.85;;;24.05;;
65835;SDS011;52595;51.608;7.216;2022-12-10T04:16:22;46.00;;;23.15;;
65835;SDS011;52595;51.608;7.216;2022-12-10T04:18:51;46.33;;;23.58;;
65835;SDS011;52595;51.608;7.216;2022-12-10T04:21:17;51.40;;;24.45;;
65835;SDS011;52595;51.608;7.216;2022-12-10T04:24:01;53.05;;;23.85;;
65835;SDS011;52595;51.608;7.216;2022-12-10T04:26:45;45.20;;;22.00;;
65835;SDS011;52595;51.608;7.216;2022-12-10T04:29:24;49.97;;;22.75;;
65835;SDS011;52595;51.608;7.216;2022-12-10T04:31:53;49.30;;;23.02;;
65835;SDS011;52595;51.608;7.216;2022-12-10T04:34:20;49.67;;;22.55;;
65835;SDS011;52595;51.608;7.216;2022-12-10T04:36:46;44.28;;;22.38;;
65835;SDS011;52595;51.608;7.216;2022-12-10T04:39:12;46.30;;;22.15;;
65835;SDS011;52595;51.608;7.216;2022-12-10T04:41:39;46.03;;;21.85;;
65835;SDS011;52595;51.608;7.216;2022-12-10T04:44:05;45.40;;;21.90;;
65835;SDS011;52595;51.608;7.216;2022-12-10T04:46:31;45.60;;;20.55;;
65835;SDS011;52595;51.608;7.216;2022-12-10T04:48:57;50.75;;;23.20;;
65835;SDS011;52595;51.608;7.216;2022-12-10T04:51:22;50.25;;;22.77;;
65835;SDS011;52595;51.608;7.216;2022-12-10T04:53:47;50.50;;;22.77;;
65835;SDS011;52595;51.608;7.216;2022-12-10T04:56:13;53.33;;;23.02;;
65835;SDS011;52595;51.608;7.216;2022-12-10T04:58:38;45.60;;;20.77;;
65835;SDS011;52595;51.608;7.216;2022-12-10T05:01:04;46.78;;;23.30;;
65835;SDS011;52595;51.608;7.216;2022-12-10T05:03:31;47.60;;;22.17;;
65835;SDS011;52595;51.608;7.216;2022-12-10T05:06:00;49.65;;;22.80;;
65835;SDS011;52595;51.608;7.216;2022-12-10T05:08:27;47.75;;;21.95;;
65835;SDS011;52595;51.608;7.216;2022-12-10T05:10:52;50.05;;;22.08;;
65835;SDS011;52595;51.608;7.216;2022-12-10T05:13:17;48.88;;;23.23;;
65835;SDS011;52595;51.608;7.216;2022-12-10T05:15:43;45.00;;;21.25;;
65835;SDS011;52595;51.608;7.216;2022-12-10T05:18:08;50.40;;;22.38;;
65835;SDS011;52595;51.608;7.216;2022-12-10T05:20:33;47.28;;;21.63;;
65835;SDS011;52595;51.608;7.216;2022-12-10T05:22:59;57.38;;;24.73;;
65835;SDS011;52595;51.608;7.216;2022-12-10T05:25:43;52.88;;;22.58;;
65835;SDS011;52595;51.608;7.216;2022-12-10T05:28:20;54.20;;;23.15;;
65835;SDS011;52595;51.608;7.216;2022-12-10T05:30:47;53.92;;;23.30;;
65835;SDS011;52595;51.608;7.216;2022-12-10T05:33:12;55.65;;;23.23;;
65835;SDS011;52595;51.608;7.216;2022-12-10T05:35:38;56.70;;;23.27;;
65835;SDS011;52595;51.608;7.216;2022-12-10T05:38:03;51.97;;;22.65;;
65835;SDS011;52595;51.608;7.216;2022-12-10T05:40:30;49.33;;;22.63;;
65835;SDS011;52595;51.608;7.216;2022-12-10T05:42:58;52.10;;;22.60;;
65835;SDS011;52595;51.608;7.216;2022-12-10T05:45:24;55.08;;;23.75;;
65835;SDS011;52595;51.608;7.216;2022-12-10T05:47:49;52.33;;;23.15;;
65835;SDS011;52595;51.608;7.216;2022-12-10T05:50:14;53.13;;;23.20;;
65835;SDS011;52595;51.608;7.216;2022-12-10T05:52:40;53.55;;;22.38;;
65835;SDS011;52595;51.608;7.216;2022-12-10T05:55:05;51.40;;;22.08;;
65835;SDS011;52595;51.608;7.216;2022-12-10T05:57:31;48.83;;;21.45;;
65835;SDS011;52595;51.608;7.216;2022-12-10T05:59:56;44.42;;;20.00;;
65835;SDS011;52595;51.608;7.216;2022-12-10T06:02:21;44.50;;;20.25;;
65835;SDS011;52595;51.608;7.216;2022-12-10T06:04:47;44.08;;;20.75;;
65835;SDS011;52595;51.608;7.216;2022-12-10T06:07:12;45.45;;;20.35;;
65835;SDS011;52595;51.608;7.216;2022-12-10T06:09:37;46.50;;;20.70;;
65835;SDS011;52595;51.608;7.216;2022-12-10T06:12:03;43.47;;;20.58;;
65835;SDS011;52595;51.608;7.216;2022-12-10T06:14:28;44.53;;;20.42;;
65835;SDS011;52595;51.608;7.216;2022-12-10T06:16:54;42.60;;;19.63;;
65835;SDS011;52595;51.608;7.216;2022-12-10T06:19:19;48.33;;;21.48;;
65835;SDS011;52595;51.608;7.216;2022-12-10T06:21:45;43.47;;;19.75;;
65835;SDS011;52595;51.608;7.216;2022-12-10T06:24:10;43.13;;;19.50;;
65835;SDS011;52595;51.608;7.216;2022-12-10T06:26:35;46.13;;;19.90;;
65835;SDS011;52595;51.608;7.216;2022-12-10T06:29:01;41.28;;;19.88;;
65835;SDS011;52595;51.608;7.216;2022-12-10T06:31:27;41.38;;;19.08;;
65835;SDS011;52595;51.608;7.216;2022-12-10T06:33:52;38.25;;;19.38;;
65835;SDS011;52595;51.608;7.216;2022-12-10T06:36:19;42.03;;;19.63;;
65835;SDS011;52595;51.608;7.216;2022-12-10T06:38:44;41.33;;;19.13;;
65835;SDS011;52595;51.608;7.216;2022-12-10T06:41:11;42.13;;;19.73;;
65835;SDS011;52595;51.608;7.216;2022-12-10T06:43:38;41.15;;;19.70;;
65835;SDS011;52595;51.608;7.216;2022-12-10T06:46:05;41.63;;;18.95;;
65835;SDS011;52595;51.608;7.216;2022-12-10T06:48:31;45.85;;;19.95;;
65835;SDS011;52595;51.608;7.216;2022-12-10T06:50:57;38.58;;;17.92;;
65835;SDS011;52595;51.608;7.216;2022-12-10T06:53:23;44.85;;;19.30;;
65835;SDS011;52595;51.608;7.216;2022-12-10T06:55:48;40.63;;;19.25;;
65835;SDS011;52595;51.608;7.216;2022-12-10T06:58:14;41.58;;;19.42;;
65835;SDS011;52595;51.608;7.216;2022-12-10T07:00:39;39.53;;;19.10;;
65835;SDS011;52595;51.608;7.216;2022-12-10T07:03:04;41.80;;;18.65;;
65835;SDS011;52595;51.608;7.216;2022-12-10T07:05:30;39.67;;;19.02;;
65835;SDS011;52595;51.608;7.216;2022-12-10T07:07:55;41.47;;;19.42;;
65835;SDS011;52595;51.608;7.216;2022-12-10T07:10:21;42.95;;;19.20;;
65835;SDS011;52595;51.608;7.216;2022-12-10T07:12:46;42.55;;;18.95;;
65835;SDS011;52595;51.608;7.216;2022-12-10T07:15:12;41.10;;;19.38;;
65835;SDS011;52595;51.608;7.216;2022-12-10T07:17:37;45.00;;;20.17;;
65835;SDS011;52595;51.608;7.216;2022-12-10T07:20:03;48.85;;;21.73;;
65835;SDS011;52595;51.608;7.216;2022-12-10T07:22:29;43.25;;;20.25;;
65835;SDS011;52595;51.608;7.216;2022-12-10T07:24:54;52.90;;;22.48;;
65835;SDS011;52595;51.608;7.216;2022-12-10T07:27:19;50.08;;;22.23;;
65835;SDS011;52595;51.608;7.216;2022-12-10T07:29:45;59.38;;;24.45;;
65835;SDS011;52595;51.608;7.216;2022-12-10T07:32:10;52.60;;;24.30;;
65835;SDS011;52595;51.608;7.216;2022-12-10T07:34:36;52.97;;;23.33;;
65835;SDS011;52595;51.608;7.216;2022-12-10T07:37:01;51.90;;;23.60;;
65835;SDS011;52595;51.608;7.216;2022-12-10T07:39:27;58.35;;;25.48;;
65835;SDS011;52595;51.608;7.216;2022-12-10T07:41:52;63.50;;;25.88;;
65835;SDS011;52595;51.608;7.216;2022-12-10T07:44:19;67.15;;;26.52;;
65835;SDS011;52595;51.608;7.216;2022-12-10T07:46:46;65.63;;;28.42;;
65835;SDS011;52595;51.608;7.216;2022-12-10T07:49:12;60.85;;;26.63;;
65835;SDS011;52595;51.608;7.216;2022-12-10T07:51:38;60.45;;;27.33;;
65835;SDS011;52595;51.608;7.216;2022-12-10T07:54:03;66.95;;;28.88;;
65835;SDS011;52595;51.608;7.216;2022-12-10T07:56:29;62.40;;;26.42;;
65835;SDS011;52595;51.608;7.216;2022-12-10T07:58:54;60.17;;;25.52;;
65835;SDS011;52595;51.608;7.216;2022-12-10T08:01:21;63.67;;;25.65;;
65835;SDS011;52595;51.608;7.216;2022-12-10T08:03:49;56.90;;;23.90;;
65835;SDS011;52595;51.608;7.216;2022-12-10T08:06:16;65.40;;;26.20;;
65835;SDS011;52595;51.608;7.216;2022-12-10T08:08:44;57.90;;;22.85;;
65835;SDS011;52595;51.608;7.216;2022-12-10T08:11:10;68.80;;;25.60;;
65835;SDS011;52595;51.608;7.216;2022-12-10T08:13:36;68.32;;;22.48;;
65835;SDS011;52595;51.608;7.216;2022-12-10T08:16:04;80.22;;;25.10;;
65835;SDS011;52595;51.608;7.216;2022-12-10T08:18:36;75.03;;;27.20;;
65835;SDS011;52595;51.608;7.216;2022-12-10T08:21:04;81.55;;;26.92;;
65835;SDS011;52595;51.608;7.216;2022-12-10T08:23:31;85.93;;;26.77;;
65835;SDS011;52595;51.608;7.216;2022-12-10T08:25:56;74.85;;;26.25;;
65835;SDS011;52595;51.608;7.216;2022-12-10T08:28:22;87.78;;;25.77;;
65835;SDS011;52595;51.608;7.216;2022-12-10T08:30:48;87.03;;;26.27;;
65835;SDS011;52595;51.608;7.216;2022-12-10T08:33:14;102.32;;;26.63;;
65835;SDS011;52595;51.608;7.216;2022-12-10T08:35:40;112.97;;;27.67;;
65835;SDS011;52595;51.608;7.216;2022-12-10T08:38:05;119.90;;;25.42;;
65835;SDS011;52595;51.608;7.216;2022-12-10T08:40:31;107.40;;;23.30;;
65835;SDS011;52595;51.608;7.216;2022-12-10T08:42:56;79.43;;;20.08;;
65835;SDS011;52595;51.608;7.216;2022-12-10T08:45:22;114.68;;;27.98;;
65835;SDS011;52595;51.608;7.216;2022-12-10T08:47:47;99.28;;;27.00;;
65835;SDS011;52595;51.608;7.216;2022-12-10T08:50:12;96.63;;;26.85;;
65835;SDS011;52595;51.608;7.216;2022-12-10T08:52:38;121.47;;;29.40;;
65835;SDS011;52595;51.608;7.216;2022-12-10T08:55:03;132.93;;;30.58;;
65835;SDS011;52595;51.608;7.216;2022-12-10T08:57:29;118.47;;;29.95;;
65835;SDS011;52595;51.608;7.216;2022-12-10T08:59:55;133.55;;;31.23;;
65835;SDS011;52595;51.608;7.216;2022-12-10T09:02:20;122.18;;;29.90;;
65835;SDS011;52595;51.608;7.216;2022-12-10T09:04:45;109.75;;;27.67;;
65835;SDS011;52595;51.608;7.216;2022-12-10T09:07:11;119.03;;;29.38;;
65835;SDS011;52595;51.608;7.216;2022-12-10T09:09:37;105.88;;;28.70;;
65835;SDS011;52595;51.608;7.216;2022-12-10T09:12:02;75.65;;;22.63;;
65835;SDS011;52595;51.608;7.216;2022-12-10T09:14:28;72.53;;;22.10;;
65835;SDS011;52595;51.608;7.216;2022-12-10T09:16:53;80.75;;;23.35;;
65835;SDS011;52595;51.608;7.216;2022-12-10T09:19:19;65.18;;;21.70;;
65835;SDS011;52595;51.608;7.216;2022-12-10T09:21:44;78.82;;;23.98;;
65835;SDS011;52595;51.608;7.216;2022-12-10T09:24:12;85.20;;;26.02;;
65835;SDS011;52595;51.608;7.216;2022-12-10T09:26:37;93.35;;;27.10;;
65835;SDS011;52595;51.608;7.216;2022-12-10T09:29:03;96.97;;;28.25;;
65835;SDS011;52595;51.608;7.216;2022-12-10T09:31:28;66.22;;;23.00;;
65835;SDS011;52595;51.608;7.216;2022-12-10T09:33:54;91.35;;;27.63;;
65835;SDS011;52595;51.608;7.216;2022-12-10T09:36:20;82.90;;;26.70;;
65835;SDS011;52595;51.608;7.216;2022-12-10T09:38:46;82.78;;;26.17;;
65835;SDS011;52595;51.608;7.216;2022-12-10T09:52:14;74.25;;;24.95;;
65835;SDS011;52595;51.608;7.216;2022-12-10T09:54:44;76.90;;;26.92;;
65835;SDS011;52595;51.608;7.216;2022-12-10T09:57:33;71.65;;;25.33;;
65835;SDS011;52595;51.608;7.216;2022-12-10T10:00:15;65.40;;;24.85;;
65835;SDS011;52595;51.608;7.216;2022-12-10T10:05:11;70.60;;;24.33;;
65835;SDS011;52595;51.608;7.216;2022-12-10T10:07:48;63.95;;;24.30;;
65835;SDS011;52595;51.608;7.216;2022-12-10T10:12:50;64.03;;;24.10;;
65835;SDS011;52595;51.608;7.216;2022-12-10T10:15:18;67.32;;;25.95;;
65835;SDS011;52595;51.608;7.216;2022-12-10T10:17:56;67.80;;;26.10;;
65835;SDS011;52595;51.608;7.216;2022-12-10T10:20:27;62.60;;;24.17;;
65835;SDS011;52595;51.608;7.216;2022-12-10T10:22:53;61.55;;;23.98;;
65835;SDS011;52595;51.608;7.216;2022-12-10T10:25:21;57.17;;;23.45;;
65835;SDS011;52595;51.608;7.216;2022-12-10T10:27:47;67.63;;;25.88;;
65835;SDS011;52595;51.608;7.216;2022-12-10T10:30:17;64.93;;;23.35;;
65835;SDS011;52595;51.608;7.216;2022-12-10T10:32:45;59.33;;;23.75;;
65835;SDS011;52595;51.608;7.216;2022-12-10T10:35:21;61.15;;;24.02;;
65835;SDS011;52595;51.608;7.216;2022-12-10T10:37:49;62.10;;;24.42;;
65835;SDS011;52595;51.608;7.216;2022-12-10T10:40:21;62.17;;;22.83;;
65835;SDS011;52595;51.608;7.216;2022-12-10T10:42:48;69.30;;;24.65;;
65835;SDS011;52595;51.608;7.216;2022-12-10T10:45:30;63.35;;;21.48;;
65835;SDS011;52595;51.608;7.216;2022-12-10T10:48:18;78.47;;;25.25;;
65835;SDS011;52595;51.608;7.216;2022-12-10T10:53:27;71.57;;;25.25;;
65835;SDS011;52595;51.608;7.216;2022-12-10T10:55:59;78.97;;;27.08;;
65835;SDS011;52595;51.608;7.216;2022-12-10T10:58:34;80.32;;;26.45;;
65835;SDS011;52595;51.608;7.216;2022-12-10T11:01:04;81.90;;;27.38;;
65835;SDS011;52595;51.608;7.216;2022-12-10T11:03:33;77.53;;;28.20;;
65835;SDS011;52595;51.608;7.216;2022-12-10T11:06:00;79.70;;;28.48;;
65835;SDS011;52595;51.608;7.216;2022-12-10T11:08:30;80.03;;;26.63;;
65835;SDS011;52595;51.608;7.216;2022-12-10T11:11:07;72.57;;;25.35;;
65835;SDS011;52595;51.608;7.216;2022-12-10T11:13:37;82.97;;;28.37;;
65835;SDS011;52595;51.608;7.216;2022-12-10T11:21:22;85.35;;;27.75;;
65835;SDS011;52595;51.608;7.216;2022-12-10T11:23:52;69.97;;;24.73;;
65835;SDS011;52595;51.608;7.216;2022-12-10T11:30:00;83.30;;;26.67;;
65835;SDS011;52595;51.608;7.216;2022-12-10T11:37:34;87.25;;;28.42;;
65835;SDS011;52595;51.608;7.216;2022-12-10T11:40:30;87.35;;;27.85;;
65835;SDS011;52595;51.608;7.216;2022-12-10T11:48:33;60.95;;;21.92;;
65835;SDS011;52595;51.608;7.216;2022-12-10T11:51:05;79.15;;;26.15;;
65835;SDS011;52595;51.608;7.216;2022-12-10T11:53:37;85.78;;;25.73;;
65835;SDS011;52595;51.608;7.216;2022-12-10T11:56:26;82.07;;;26.38;;
65835;SDS011;52595;51.608;7.216;2022-12-10T12:17:38;49.20;;;17.67;;
65835;SDS011;52595;51.608;7.216;2022-12-10T12:22:43;76.35;;;24.33;;
65835;SDS011;52595;51.608;7.216;2022-12-10T12:25:20;64.25;;;23.13;;
65835;SDS011;52595;51.608;7.216;2022-12-10T12:27:53;62.40;;;23.00;;
65835;SDS011;52595;51.608;7.216;2022-12-10T12:30:39;79.50;;;24.40;;
65835;SDS011;52595;51.608;7.216;2022-12-10T12:33:14;66.88;;;23.65;;
65835;SDS011;52595;51.608;7.216;2022-12-10T12:36:34;63.00;;;22.50;;
65835;SDS011;52595;51.608;7.216;2022-12-10T12:38:43;60.38;;;21.55;;
65835;SDS011;52595;51.608;7.216;2022-12-10T12:46:46;63.05;;;22.75;;
65835;SDS011;52595;51.608;7.216;2022-12-10T12:49:19;57.50;;;21.52;;
65835;SDS011;52595;51.608;7.216;2022-12-10T12:54:31;60.83;;;21.40;;
65835;SDS011;52595;51.608;7.216;2022-12-10T12:59:48;61.83;;;22.48;;
65835;SDS011;52595;51.608;7.216;2022-12-10T13:05:36;57.28;;;21.00;;
65835;SDS011;52595;51.608;7.216;2022-12-10T13:10:45;60.78;;;22.35;;
65835;SDS011;52595;51.608;7.216;2022-12-10T13:13:22;56.42;;;19.48;;
65835;SDS011;52595;51.608;7.216;2022-12-10T13:15:48;58.47;;;21.05;;
65835;SDS011;52595;51.608;7.216;2022-12-10T13:28:22;66.57;;;23.48;;
65835;SDS011;52595;51.608;7.216;2022-12-10T13:31:07;60.38;;;20.48;;
65835;SDS011;52595;51.608;7.216;2022-12-10T13:47:47;63.72;;;22.42;;
65835;SDS011;52595;51.608;7.216;2022-12-10T13:50:20;60.30;;;22.27;;
65835;SDS011;52595;51.608;7.216;2022-12-10T13:53:04;58.72;;;23.23;;
65835;SDS011;52595;51.608;7.216;2022-12-10T13:55:54;69.55;;;23.27;;
65835;SDS011;52595;51.608;7.216;2022-12-10T14:04:03;66.53;;;23.65;;
65835;SDS011;52595;51.608;7.216;2022-12-10T14:06:51;65.60;;;22.73;;
65835;SDS011;52595;51.608;7.216;2022-12-10T14:09:18;66.07;;;22.98;;
65835;SDS011;52595;51.608;7.216;2022-12-10T14:11:51;63.28;;;24.13;;
65835;SDS011;52595;51.608;7.216;2022-12-10T14:14:23;65.45;;;24.02;;
65835;SDS011;52595;51.608;7.216;2022-12-10T14:16:54;64.90;;;23.92;;
65835;SDS011;52595;51.608;7.216;2022-12-10T14:19:19;62.15;;;23.85;;
65835;SDS011;52595;51.608;7.216;2022-12-10T14:21:46;60.28;;;23.27;;
65835;SDS011;52595;51.608;7.216;2022-12-10T14:27:13;63.17;;;23.98;;
65835;SDS011;52595;51.608;7.216;2022-12-10T14:29:47;58.17;;;21.88;;
65835;SDS011;52595;51.608;7.216;2022-12-10T14:32:15;67.75;;;23.85;;
65835;SDS011;52595;51.608;7.216;2022-12-10T14:34:46;68.90;;;23.63;;
65835;SDS011;52595;51.608;7.216;2022-12-10T14:37:15;62.95;;;23.45;;
65835;SDS011;52595;51.608;7.216;2022-12-10T14:39:42;65.25;;;24.27;;
65835;SDS011;52595;51.608;7.216;2022-12-10T14:42:09;64.50;;;23.60;;
65835;SDS011;52595;51.608;7.216;2022-12-10T14:44:39;61.80;;;23.38;;
65835;SDS011;52595;51.608;7.216;2022-12-10T14:49:46;63.63;;;23.92;;
65835;SDS011;52595;51.608;7.216;2022-12-10T14:52:14;63.38;;;23.50;;
65835;SDS011;52595;51.608;7.216;2022-12-10T14:54:51;61.78;;;23.52;;
65835;SDS011;52595;51.608;7.216;2022-12-10T14:57:18;64.43;;;24.25;;
65835;SDS011;52595;51.608;7.216;2022-12-10T15:02:37;60.50;;;23.08;;
65835;SDS011;52595;51.608;7.216;2022-12-10T15:08:06;52.45;;;20.02;;
65835;SDS011;52595;51.608;7.216;2022-12-10T15:10:39;54.22;;;21.67;;
65835;SDS011;52595;51.608;7.216;2022-12-10T15:13:13;59.70;;;22.63;;
65835;SDS011;52595;51.608;7.216;2022-12-10T15:15:44;60.83;;;22.13;;
65835;SDS011;52595;51.608;7.216;2022-12-10T15:18:15;60.37;;;23.47;;
65835;SDS011;52595;51.608;7.216;2022-12-10T15:20:50;61.90;;;22.23;;
65835;SDS011;52595;51.608;7.216;2022-12-10T15:26:04;59.08;;;21.95;;
65835;SDS011;52595;51.608;7.216;2022-12-10T15:28:39;55.65;;;21.08;;
65835;SDS011;52595;51.608;7.216;2022-12-10T15:31:22;67.65;;;22.02;;
65835;SDS011;52595;51.608;7.216;2022-12-10T15:34:10;55.55;;;20.85;;
65835;SDS011;52595;51.608;7.216;2022-12-10T15:36:39;49.53;;;20.15;;
65835;SDS011;52595;51.608;7.216;2022-12-10T15:46:59;61.15;;;23.67;;
65835;SDS011;52595;51.608;7.216;2022-12-10T15:49:40;51.83;;;20.10;;
65835;SDS011;52595;51.608;7.216;2022-12-10T15:52:06;55.05;;;22.05;;
65835;SDS011;52595;51.608;7.216;2022-12-10T15:54:35;57.67;;;22.85;;
65835;SDS011;52595;51.608;7.216;2022-12-10T15:57:24;48.25;;;19.30;;
65835;SDS011;52595;51.608;7.216;2022-12-10T16:00:00;55.45;;;19.80;;
65835;SDS011;52595;51.608;7.216;2022-12-10T16:05:22;47.42;;;19.35;;
65835;SDS011;52595;51.608;7.216;2022-12-10T16:07:54;42.20;;;17.17;;
65835;SDS011;52595;51.608;7.216;2022-12-10T16:10:22;50.03;;;18.45;;
65835;SDS011;52595;51.608;7.216;2022-12-10T16:12:52;56.65;;;20.30;;
65835;SDS011;52595;51.608;7.216;2022-12-10T16:15:27;59.70;;;21.05;;
65835;SDS011;52595;51.608;7.216;2022-12-10T16:18:01;52.25;;;18.48;;
65835;SDS011;52595;51.608;7.216;2022-12-10T16:20:30;61.88;;;19.95;;
65835;SDS011;52595;51.608;7.216;2022-12-10T16:22:58;45.22;;;17.10;;
65835;SDS011;52595;51.608;7.216;2022-12-10T16:25:24;51.22;;;18.92;;
65835;SDS011;52595;51.608;7.216;2022-12-10T16:27:51;52.40;;;21.25;;
65835;SDS011;52595;51.608;7.216;2022-12-10T16:30:24;55.80;;;19.75;;
65835;SDS011;52595;51.608;7.216;2022-12-10T16:32:54;55.92;;;20.42;;
65835;SDS011;52595;51.608;7.216;2022-12-10T16:35:20;54.13;;;20.63;;
65835;SDS011;52595;51.608;7.216;2022-12-10T16:37:46;57.20;;;19.80;;
65835;SDS011;52595;51.608;7.216;2022-12-10T16:40:19;56.35;;;19.75;;
65835;SDS011;52595;51.608;7.216;2022-12-10T16:42:46;52.60;;;19.70;;
65835;SDS011;52595;51.608;7.216;2022-12-10T16:45:16;47.33;;;19.27;;
65835;SDS011;52595;51.608;7.216;2022-12-10T16:48:02;56.38;;;21.23;;
65835;SDS011;52595;51.608;7.216;2022-12-10T16:50:28;59.13;;;20.48;;
65835;SDS011;52595;51.608;7.216;2022-12-10T16:52:55;59.08;;;21.67;;
65835;SDS011;52595;51.608;7.216;2022-12-10T16:55:22;52.75;;;20.98;;
65835;SDS011;52595;51.608;7.216;2022-12-10T16:57:50;62.55;;;22.50;;
65835;SDS011;52595;51.608;7.216;2022-12-10T17:00:17;62.60;;;22.45;;
65835;SDS011;52595;51.608;7.216;2022-12-10T17:02:45;51.65;;;20.40;;
65835;SDS011;52595;51.608;7.216;2022-12-10T17:05:27;55.47;;;21.30;;
65835;SDS011;52595;51.608;7.216;2022-12-10T17:07:56;63.40;;;23.20;;